Maugansville, MD

5:07 PM EDT on May 05, 2015 (GMT -0400)
State Line | | Change Station
CLOSE
Current Station
Personal Weather Station
Location: Greencastle, PA
Elevation: 661 ft
Nearby Weather Stations

Elev 661 ft 39.74 °N, 77.72 °W | Updated 15 seconds ago

Partly Cloudy
Partly Cloudy
78.3 °F
Feels Like 79 °F
N
0.0
Wind Variable Wind from North
Gusts 1.0 mph

Today
High -- | Low -- °F
--% Chance of Precip.
Yesterday
High -- | Low -- °F
Precip. -- in
6:07 AM 8:08 PM
Full, 97% visible
Pressure 30.23 in
Visibility 10.0 miles
Clouds Few 9000 ft
Few 11000 ft
Heat Index 79 °F
Dew Point 58 °F
Humidity 50%
Rainfall 0.00 in
Snow Depth Not available.
UV 6 out of 12
Pollen 8.90 out of 12
Air Quality Not available.
Flu Activity Local Activity
METAR KHGR 051953Z 00000KT 10SM FEW090 FEW110 27/14 A3021 RMK AO2 SLP235 T02670139

More Conditions Fewer Conditions

Pressure 30.23 in
Visibility 10.0 miles
Clouds Few 9000 ft
Few 11000 ft
Heat Index 79 °F
Dew Point 58 °F
Humidity 50%
Rainfall 0.00 in
Snow Depth Not available.
UV 6 out of 12
Pollen 8.90 out of 12
Air Quality Not available.
Flu Activity Local Activity
METAR KHGR 051953Z 00000KT 10SM FEW090 FEW110 27/14 A3021 RMK AO2 SLP235 T02670139

More Conditions Fewer Conditions

10-Day Weather Forecast

Almanac

Astronomy

May. 05, 2015 Rise Set
Actual Time
Civil Twilight
Nautical Twilight
Astronomical Twilight
Moon
Length of Visible Light
Length of Day
Tomorrow will be .
, % of the Moon is Illuminated

Today's Extremes

State Highs State Lows

Community

WunderPhotos

Upload Photos

1,818,978 photos uploaded!

WunderBlogs® & News

Nearby

Air Quality

  Air Quality AQ Index Pollutant
Not available.

Snow Depth

Station Depth Elevation

Earthquake Activity

City Distance Mag. Time & Date
Minimum magnitude displayed is 2.5.

Coastal Water Temperatures

Place Temperature

Stations

Nearby Weather Stations

Station Location Temp. Windchill Dew Point Humidity Wind Precip. Elev Updated Type